Bomnak, Russia
Current Conditions -  °F | °C
As of 3:00 PM on Monday 26 Jan 2015 (Local Time) from UHBB Reporting Station
Clear Clear  
Wind Chill: -7°   Ceiling: Unl
Heat Index:   Visibility: 6mi
Dew Point: -9°   Wind: 9mph
Humidity: 48%   Direction: 340°NNW
Pressure: 30.06"   Gusts: NA
Location:  54.71°N, 128.86°E
Report Text: UHBB 260600Z 34004MPS CAVOK M14/M23 Q1018 NOSIG RMK QFE746/099436410260
Loading
Personal Weather Stations






























Interactive Weather Map New forecast layout! Learn more

10-Day Weather Forecast

Advertisements
Track Severe Weather on mobile